Terminal Aerodrome Forecast
Issued by NWS

Home | Current Version | Previous Version | Text Only | Print | Product List | Glossary On
Versions: 1 2 3 4 5 6 7 8 9 10 11 12 13 14 15 16 17 18 19 20 21 22 23 24 25 26 27 28 29 30 31 32 33 34 35 36 37 38 39 40 41 42 43 44 45 46 47 48 49 50
384
FTUS42 KMFL 110835 AAA
TAFFXE
TAF AMD
KFXE 110835Z 1109/1206 06018G28KT P6SM VCSH SCT025 BKN035 OVC050
     FM111400 10016G26KT P6SM VCSH SCT020 BKN040 OVC060
     FM120100 11009KT P6SM VCSH SCT035 BKN050 BKN100=

USA.gov is the U.S. government's official web portal to all federal, state and local government web resources and services.